Agadez, Niger
Current Conditions -  °F | °C
As of 11:00 PM on Friday 24 Oct 2014 (Local Time) from KQAZ Reporting Station
Clear Clear  
Wind Chill: 81°   Ceiling: Unl
Heat Index: 81°   Visibility: 6mi
Dew Point: 32°   Wind: 1mph
Humidity: 17%   Direction: 80°E
Pressure: 29.94"   Gusts: NA
Location:  17°N, 7.98°E
Report Text: KQAZ 242200Z AUTO 08001KT 9999 CLR 27/00 A2994 RMK CDP03565 CLR
Loading
Personal Weather Stations






























Interactive Weather Map
Tropical Storm Tracking
New forecast layout! Learn more

10-Day Weather Forecast

Advertisements
Track Severe Weather on mobile